EDQM

Hof-Plauen Airport

Hof, Germany
METAR EDQM 211320Z 27007KT CAVOK 18/14 Q1014
Observed Flight Rules
Jul-21 @ 13:20 UTC (26 minutes ago) Visual Flight Rules
Wind Visibility Clouds
270° at 7 knots 10,000+ meters
  • Clear skies
Temperatures Readings
Current 18°C / 64°F
Dewpoint 14°C / 57°F
Humidity 78%
Altimeter 29.94" Hg
Pressure 1014 hPa
Elevation 568
METAR EDQM 211320Z 27007KT CAVOK 18/14 Q1014
Observed Flight Rules
Jul-21 @ 13:20 UTC
(26 minutes ago)
VFR
Wind Visibility
270° at 7 knots 10,000+ meters
Clouds
  • Clear skies
Temperature Dewpoint
18°C / 64°F 14°C / 57°F
Humidity Altimeter Pressure
78% 29.94" Hg 1014 hPa